Kumamoto, Japan
Current Conditions -  °F | °C
As of 1:00 PM on Wednesday 28 Jan 2015 (Local Time) from RJFT Reporting Station
Broken Clouds Broken Clouds  
Wind Chill: 44°   Ceiling: Unl
Heat Index: 46°   Visibility: 6mi
Dew Point: 25°   Wind: 6mph
Humidity: 43%   Direction: 290°WNW
Pressure: 30.12"   Gusts: NA
Location:  32.8°N, 130.71°E
Report Text: RJFT 280400Z 29005KT 230V340 9999 FEW040 SCT150 BKN/// 08/M04 Q1020
Loading
Personal Weather Stations






























Interactive Weather Map New forecast layout! Learn more

10-Day Weather Forecast

Advertisements
Track Severe Weather on mobile